Time;durP1;ratioP1;P1;durP2;ratioP2;P2;SDS_P1;SDS_P2;PMS_P1;PMS_P2;Temp;Humidity;BMP_temperature;BMP_pressure;BME280_temperature;BME280_humidity;BME280_pressure;Samples;Min_cycle;Max_cycle;Signal;HPM_P1;HPM_P2
2023/08/13 00:00:32;;;;;;;0.08;0.08;;;;;;;18.61;60.68;100242.13;7345338;19;20785;-55
2023/08/13 00:02:58;;;;;;;0.00;0.00;;;;;;;18.56;61.03;100241.56;7349630;19;20014;-57
2023/08/13 00:05:23;;;;;;;0.03;0.03;;;;;;;18.49;60.86;100233.13;7356302;19;20014;-56
2023/08/13 00:07:49;;;;;;;0.00;0.00;;;;;;;18.50;61.30;100244.56;7357376;19;20014;-56
2023/08/13 00:10:14;;;;;;;0.00;0.00;;;;;;;18.46;61.71;100243.94;7350530;19;20030;-57
2023/08/13 00:12:40;;;;;;;0.00;0.00;;;;;;;18.44;61.36;100255.53;7346365;19;20019;-55
2023/08/13 00:15:05;;;;;;;0.00;0.00;;;;;;;18.40;61.38;100245.16;7350473;19;20014;-56
2023/08/13 00:17:31;;;;;;;0.03;0.03;;;;;;;18.39;61.80;100246.09;7350085;19;20836;-57
2023/08/13 00:19:56;;;;;;;0.00;0.00;;;;;;;18.38;62.09;100244.38;7354012;19;20080;-56
2023/08/13 00:22:22;;;;;;;0.00;0.00;;;;;;;18.37;62.06;100248.00;7354644;19;20033;-57
2023/08/13 00:24:49;;;;;;;0.00;0.00;;;;;;;18.28;61.91;100235.34;7349871;19;20018;-57
2023/08/13 00:27:15;;;;;;;0.08;0.08;;;;;;;18.36;62.11;100256.03;7352788;19;20023;-56
2023/08/13 00:29:40;;;;;;;0.00;0.00;;;;;;;18.36;62.37;100251.59;7351645;19;20015;-56
2023/08/13 00:32:06;;;;;;;0.00;0.00;;;;;;;18.36;62.09;100248.09;7352095;19;20779;-55
2023/08/13 00:34:31;;;;;;;0.00;0.00;;;;;;;18.36;62.39;100238.38;7353138;19;20010;-56
2023/08/13 00:36:57;;;;;;;0.10;0.10;;;;;;;18.36;62.21;100243.66;7352723;19;20363;-55
2023/08/13 00:39:22;;;;;;;0.10;0.10;;;;;;;18.36;62.29;100248.94;7354495;19;20044;-56
2023/08/13 00:41:47;;;;;;;0.00;0.00;;;;;;;18.37;62.08;100240.06;7350537;19;20013;-56
2023/08/13 00:44:13;;;;;;;0.03;0.03;;;;;;;18.37;62.05;100249.78;7352173;19;20010;-56
2023/08/13 00:46:39;;;;;;;0.00;0.00;;;;;;;18.37;61.82;100245.34;7352224;19;20702;-55
2023/08/13 00:49:04;;;;;;;0.10;0.10;;;;;;;18.38;61.98;100235.63;7354631;19;20048;-56
2023/08/13 00:51:30;;;;;;;0.00;0.00;;;;;;;18.37;62.17;100233.91;7353549;19;20011;-56
2023/08/13 00:53:55;;;;;;;0.00;0.00;;;;;;;18.38;62.13;100241.75;7352728;19;20938;-56
2023/08/13 00:56:22;;;;;;;0.10;0.10;;;;;;;18.35;62.20;100241.97;7352501;19;20029;-55
2023/08/13 00:58:47;;;;;;;0.10;0.10;;;;;;;18.38;61.92;100240.91;7350807;19;20542;-57
2023/08/13 01:01:13;;;;;;;0.00;0.00;;;;;;;18.26;61.87;100221.38;7354236;19;20008;-56
2023/08/13 01:03:38;;;;;;;0.00;0.00;;;;;;;18.38;61.51;100254.97;7352157;19;20010;-54
2023/08/13 01:06:10;;;;;;;0.00;0.00;;;;;;;18.38;61.67;100249.69;7353676;19;20010;-55
2023/08/13 01:08:53;;;;;;;0.00;0.00;;;;;;;18.37;61.33;100240.06;7353088;19;20777;-57
2023/08/13 01:11:59;;;;;;;0.00;0.00;;;;;;;18.36;60.29;100238.38;7354597;19;20045;-54
2023/08/13 01:14:35;;;;;;;0.07;0.07;;;;;;;18.33;61.16;100240.34;7251568;19;2004185;-57
2023/08/13 01:17:03;;;;;;;0.10;0.10;;;;;;;18.28;61.79;100235.34;7350985;19;20102;-56
2023/08/13 01:19:28;;;;;;;0.00;0.00;;;;;;;18.26;62.22;100242.53;7350205;19;20836;-54
2023/08/13 01:21:54;;;;;;;0.10;0.10;;;;;;;18.23;61.83;100242.69;7350540;19;20042;-55
2023/08/13 01:24:19;;;;;;;0.00;0.00;;;;;;;18.18;62.22;100239.50;7352261;19;20025;-57
2023/08/13 01:27:06;;;;;;;0.10;0.10;;;;;;;18.16;62.14;100241.38;7348034;19;20006;-56
2023/08/13 01:29:46;;;;;;;0.10;0.10;;;;;;;18.14;61.26;100237.97;7349910;19;20902;-57
2023/08/13 01:32:16;;;;;;;0.00;0.00;;;;;;;18.10;62.27;100241.78;7352217;19;20554;-56
2023/08/13 01:34:43;;;;;;;0.10;0.10;;;;;;;18.05;62.57;100238.56;7351227;19;20006;-57
2023/08/13 01:37:09;;;;;;;0.10;0.10;;;;;;;18.03;62.81;100243.06;7355824;19;20010;-55
2023/08/13 01:39:34;;;;;;;0.10;0.10;;;;;;;18.00;62.21;100241.47;7355371;19;20034;-56
2023/08/13 01:42:00;;;;;;;0.00;0.00;;;;;;;18.00;62.90;100240.63;7356745;19;20010;-57
2023/08/13 01:44:25;;;;;;;0.10;0.10;;;;;;;17.99;63.03;100239.75;7355288;19;20842;-57
2023/08/13 01:46:51;;;;;;;0.00;0.00;;;;;;;17.96;62.97;100239.13;7352218;19;20030;-56
2023/08/13 01:49:16;;;;;;;0.05;0.05;;;;;;;17.95;62.76;100237.44;7356886;19;20104;-57
2023/08/13 01:51:41;;;;;;;0.10;0.10;;;;;;;17.94;62.50;100231.25;7350142;19;20073;-57
2023/08/13 01:54:07;;;;;;;0.00;0.00;;;;;;;17.82;62.63;100221.44;7355158;19;20018;-57
2023/08/13 01:56:33;;;;;;;0.00;0.00;;;;;;;17.92;63.19;100232.31;7356247;19;20039;-57
2023/08/13 01:58:58;;;;;;;0.00;0.00;;;;;;;17.89;63.32;100236.84;7349752;19;20585;-56
2023/08/13 02:01:23;;;;;;;0.00;0.00;;;;;;;17.83;62.86;100224.00;7356639;19;20018;-56
2023/08/13 02:03:49;;;;;;;0.00;0.00;;;;;;;17.79;63.13;100227.78;7352023;19;20025;-56
2023/08/13 02:06:15;;;;;;;0.08;0.08;;;;;;;17.81;63.48;100236.44;7352993;19;20486;-56
2023/08/13 02:08:40;;;;;;;0.10;0.10;;;;;;;17.75;63.64;100235.97;7353375;19;20458;-55
2023/08/13 02:11:05;;;;;;;0.00;0.00;;;;;;;17.74;63.61;100243.06;7353871;19;20011;-55
2023/08/13 02:13:31;;;;;;;0.00;0.00;;;;;;;17.71;63.58;100240.56;7355730;19;20030;-56
2023/08/13 02:16:05;;;;;;;0.10;0.10;;;;;;;17.70;62.87;100244.13;7352765;19;20352;-56
2023/08/13 02:18:31;;;;;;;0.00;0.00;;;;;;;17.52;63.78;100222.31;7355676;19;20026;-57
2023/08/13 02:20:57;;;;;;;0.00;0.00;;;;;;;17.60;63.42;100237.72;7352992;19;20007;-56
2023/08/13 02:23:22;;;;;;;0.03;0.03;;;;;;;17.56;63.94;100236.19;7353587;19;20055;-56
2023/08/13 02:25:49;;;;;;;0.00;0.00;;;;;;;17.53;63.91;100231.91;7355649;19;20033;-57
2023/08/13 02:28:14;;;;;;;0.00;0.00;;;;;;;17.50;63.88;100231.28;7351167;19;20010;-57
2023/08/13 02:30:39;;;;;;;0.00;0.00;;;;;;;17.46;63.83;100227.09;7351582;19;20091;-55
2023/08/13 02:33:05;;;;;;;0.00;0.00;;;;;;;17.45;64.12;100225.41;7352717;19;20014;-56
2023/08/13 02:35:30;;;;;;;0.00;0.00;;;;;;;17.42;64.16;100221.16;7354969;19;20006;-57
2023/08/13 02:37:56;;;;;;;0.00;0.00;;;;;;;17.39;63.81;100223.97;7350967;19;20014;-57
2023/08/13 02:40:21;;;;;;;0.10;0.10;;;;;;;17.24;64.34;100194.06;7354054;19;20112;-55
2023/08/13 02:42:47;;;;;;;0.10;0.10;;;;;;;17.32;64.76;100218.19;7350732;19;20895;-55
2023/08/13 02:45:12;;;;;;;0.00;0.00;;;;;;;17.30;64.65;100211.31;7354113;19;20082;-57
2023/08/13 02:47:37;;;;;;;0.08;0.08;;;;;;;17.28;64.80;100221.09;7350640;19;20021;-57
2023/08/13 02:50:03;;;;;;;0.10;0.10;;;;;;;17.27;64.76;100220.25;7353972;19;20102;-56
2023/08/13 02:52:29;;;;;;;0.00;0.00;;;;;;;17.28;64.44;100227.22;7352629;19;20010;-56
2023/08/13 02:54:54;;;;;;;0.10;0.10;;;;;;;17.27;65.13;100217.59;7351797;19;20007;-55
2023/08/13 02:57:19;;;;;;;0.10;0.10;;;;;;;17.23;65.20;100210.81;7351434;19;20098;-56
2023/08/13 02:59:45;;;;;;;0.00;0.00;;;;;;;17.29;65.40;100213.13;7351880;19;20011;-55
2023/08/13 03:02:10;;;;;;;0.05;0.05;;;;;;;17.31;65.12;100221.78;7352622;19;20027;-56
2023/08/13 03:04:36;;;;;;;0.10;0.10;;;;;;;17.32;65.33;100212.06;7352181;19;20802;-54
2023/08/13 03:07:01;;;;;;;0.10;0.10;;;;;;;17.35;65.23;100207.47;7352814;19;20057;-56
2023/08/13 03:09:26;;;;;;;0.10;0.10;;;;;;;17.38;65.38;100209.91;7351584;19;20121;-57
2023/08/13 03:11:52;;;;;;;0.00;0.00;;;;;;;17.37;64.83;100205.56;7351887;19;20006;-57
2023/08/13 03:14:18;;;;;;;0.00;0.00;;;;;;;17.39;65.08;100213.44;7353075;19;20677;-56
2023/08/13 03:16:44;;;;;;;0.10;0.10;;;;;;;17.27;64.79;100193.00;7351440;19;20031;-57
2023/08/13 03:19:09;;;;;;;0.00;0.00;;;;;;;17.35;65.19;100211.91;7335809;19;20014;-57
2023/08/13 03:21:35;;;;;;;0.00;0.00;;;;;;;17.35;65.37;100207.47;7358259;19;20010;-56
2023/08/13 03:24:00;;;;;;;0.00;0.00;;;;;;;17.36;65.09;100211.81;7353687;19;20546;-54
2023/08/13 03:26:25;;;;;;;0.05;0.05;;;;;;;17.35;65.44;100210.09;7360571;19;20042;-55
2023/08/13 03:28:51;;;;;;;0.10;0.10;;;;;;;17.36;65.18;100214.44;7359825;19;20006;-56
2023/08/13 03:31:16;;;;;;;0.10;0.10;;;;;;;17.27;65.25;100196.50;7358134;19;20018;-56
2023/08/13 03:33:42;;;;;;;0.00;0.00;;;;;;;17.33;65.39;100213.75;7360025;19;20007;-56
2023/08/13 03:36:07;;;;;;;0.00;0.00;;;;;;;17.40;64.91;100222.19;7360648;19;20369;-57
2023/08/13 03:38:33;;;;;;;0.00;0.00;;;;;;;17.40;65.40;100220.41;7360029;19;20006;-57
2023/08/13 03:40:58;;;;;;;0.08;0.08;;;;;;;17.38;65.35;100215.19;7352255;19;20023;-58
2023/08/13 03:43:24;;;;;;;0.00;0.00;;;;;;;17.39;65.37;100218.72;7360647;19;20018;-57
2023/08/13 03:45:49;;;;;;;0.00;0.00;;;;;;;17.38;64.76;100217.81;7355065;19;20010;-58
2023/08/13 03:48:14;;;;;;;0.00;0.00;;;;;;;17.37;65.43;100207.38;7360123;19;20912;-56
2023/08/13 03:50:43;;;;;;;0.10;0.10;;;;;;;17.38;65.19;100212.53;7356695;19;20293;-56
2023/08/13 03:53:10;;;;;;;0.10;0.10;;;;;;;17.34;65.34;100212.84;7359852;19;20478;-57
2023/08/13 03:55:36;;;;;;;0.00;0.00;;;;;;;17.32;65.96;100206.78;7350181;19;20006;-55
2023/08/13 03:58:02;;;;;;;0.10;0.10;;;;;;;17.31;65.87;100215.66;7358107;19;20022;-55
2023/08/13 04:00:28;;;;;;;0.00;0.00;;;;;;;17.31;65.93;100213.84;7354884;19;20118;-56
2023/08/13 04:02:54;;;;;;;0.00;0.00;;;;;;;17.24;65.36;100194.06;7360691;19;20121;-57
2023/08/13 04:05:20;;;;;;;0.00;0.00;;;;;;;17.25;65.77;100185.19;7356736;19;20094;-57
2023/08/13 04:07:45;;;;;;;0.00;0.00;;;;;;;17.32;65.93;100207.63;7361003;19;20006;-56
2023/08/13 04:10:11;;;;;;;0.00;0.00;;;;;;;17.31;65.45;100198.03;7357429;19;20011;-55
2023/08/13 04:12:36;;;;;;;0.05;0.05;;;;;;;17.31;65.96;100199.81;7359693;19;20081;-56
2023/08/13 04:15:03;;;;;;;0.00;0.00;;;;;;;17.31;65.57;100205.94;7350408;19;20501;-57
2023/08/13 04:17:28;;;;;;;0.10;0.10;;;;;;;17.31;65.57;100205.09;7360094;19;20105;-56
2023/08/13 04:19:53;;;;;;;0.10;0.10;;;;;;;17.29;65.55;100207.00;7357222;19;20022;-56
2023/08/13 04:22:19;;;;;;;0.10;0.10;;;;;;;17.27;66.24;100209.69;7354498;19;20010;-57
2023/08/13 04:24:50;;;;;;;0.10;0.10;;;;;;;17.19;66.20;100190.00;7358418;19;20477;-56
2023/08/13 04:27:16;;;;;;;0.10;0.10;;;;;;;17.26;66.22;100207.16;7355245;19;20538;-54
2023/08/13 04:29:41;;;;;;;0.00;0.00;;;;;;;17.27;65.98;100209.69;7356802;19;20034;-57
2023/08/13 04:32:07;;;;;;;0.00;0.00;;;;;;;17.27;66.14;100214.13;7351018;19;20594;-57
2023/08/13 04:34:32;;;;;;;0.00;0.00;;;;;;;17.27;66.38;100214.97;7356495;19;20050;-57
2023/08/13 04:36:58;;;;;;;0.10;0.10;;;;;;;17.28;66.15;100207.91;7358063;19;20121;-55
2023/08/13 04:39:23;;;;;;;0.10;0.10;;;;;;;17.28;66.20;100215.81;7358605;19;20014;-55
2023/08/13 04:41:49;;;;;;;0.00;0.00;;;;;;;17.29;66.03;100213.13;7356203;19;20017;-55
2023/08/13 04:44:14;;;;;;;0.08;0.08;;;;;;;17.28;66.04;100216.66;7355544;19;20018;-55
2023/08/13 04:46:40;;;;;;;0.05;0.05;;;;;;;17.29;66.40;100217.53;7358596;19;20010;-57
2023/08/13 04:49:05;;;;;;;0.10;0.10;;;;;;;17.27;66.34;100214.97;7352687;19;20106;-56
2023/08/13 04:51:30;;;;;;;0.00;0.00;;;;;;;17.27;66.02;100214.97;7359059;19;20090;-55
2023/08/13 04:53:56;;;;;;;0.00;0.00;;;;;;;17.28;66.38;100210.53;7357803;19;20014;-55
2023/08/13 04:56:21;;;;;;;0.00;0.00;;;;;;;17.28;65.97;100211.38;7348078;19;20473;-56
2023/08/13 04:58:47;;;;;;;0.10;0.10;;;;;;;17.03;66.32;100168.91;7358302;19;20065;-56
2023/08/13 05:01:12;;;;;;;0.10;0.10;;;;;;;17.29;66.36;100218.38;7357257;19;20014;-55
2023/08/13 05:03:39;;;;;;;0.10;0.10;;;;;;;17.30;66.11;100213.97;7341153;19;20007;-56
2023/08/13 05:06:05;;;;;;;0.05;0.05;;;;;;;17.30;66.27;100213.97;7358023;19;20018;-57
2023/08/13 05:08:30;;;;;;;0.10;0.10;;;;;;;17.29;65.90;100218.38;7356627;19;20014;-57
2023/08/13 05:10:56;;;;;;;0.10;0.10;;;;;;;17.28;65.73;100216.66;7337027;19;20014;-57
2023/08/13 05:13:21;;;;;;;0.00;0.00;;;;;;;17.30;66.23;100220.09;7356578;19;20044;-55
2023/08/13 05:15:46;;;;;;;0.10;0.10;;;;;;;17.30;65.94;100225.38;7359836;19;21084;-57
2023/08/13 05:18:12;;;;;;;0.00;0.00;;;;;;;17.30;66.02;100216.59;7356510;19;20014;-55
2023/08/13 05:20:37;;;;;;;0.10;0.10;;;;;;;17.30;66.01;100214.81;7357939;19;20120;-55
2023/08/13 05:23:03;;;;;;;0.10;0.10;;;;;;;17.30;65.86;100217.44;7355333;19;20007;-55
2023/08/13 05:25:28;;;;;;;0.10;0.10;;;;;;;17.25;65.65;100206.31;7357093;19;20010;-56
2023/08/13 05:27:54;;;;;;;0.10;0.10;;;;;;;17.30;65.50;100206.88;7358425;19;20014;-56
2023/08/13 05:30:20;;;;;;;0.03;0.03;;;;;;;17.29;65.85;100207.84;7354159;19;20604;-56
2023/08/13 05:32:46;;;;;;;0.00;0.00;;;;;;;17.29;65.82;100213.13;7355865;19;20018;-56
2023/08/13 05:35:12;;;;;;;0.10;0.10;;;;;;;17.29;65.92;100212.25;7358208;19;20017;-56
2023/08/13 05:37:37;;;;;;;0.00;0.00;;;;;;;17.30;66.10;100214.81;7351272;19;20014;-56
2023/08/13 05:40:04;;;;;;;0.10;0.10;;;;;;;17.32;65.66;100217.34;7357235;19;20497;-57
2023/08/13 05:42:29;;;;;;;0.10;0.10;;;;;;;17.31;66.09;100216.50;7352763;19;20111;-57
2023/08/13 05:44:54;;;;;;;0.00;0.00;;;;;;;17.32;66.01;100217.34;7355985;19;20030;-57
2023/08/13 05:47:21;;;;;;;0.10;0.10;;;;;;;17.34;66.27;100221.63;7356279;19;20018;-56
2023/08/13 05:49:46;;;;;;;0.10;0.10;;;;;;;17.28;66.08;100206.09;7356969;19;20129;-56
2023/08/13 05:52:12;;;;;;;0.10;0.10;;;;;;;17.23;66.29;100197.59;7352349;19;20074;-56
2023/08/13 05:54:37;;;;;;;0.10;0.10;;;;;;;17.37;66.04;100220.56;7355260;19;20028;-57
2023/08/13 05:57:03;;;;;;;0.00;0.00;;;;;;;17.40;66.12;100222.19;7356219;19;20010;-55
2023/08/13 05:59:28;;;;;;;0.10;0.10;;;;;;;17.40;66.02;100209.00;7335815;19;20011;-57
2023/08/13 06:01:54;;;;;;;0.10;0.10;;;;;;;17.42;65.98;100201.81;7344273;19;20023;-55
2023/08/13 06:04:19;;;;;;;0.10;0.10;;;;;;;17.43;65.57;100206.16;7355292;19;20006;-57
2023/08/13 06:06:44;;;;;;;0.00;0.00;;;;;;;17.45;65.81;100206.94;7353727;19;20023;-55
2023/08/13 06:09:10;;;;;;;0.10;0.10;;;;;;;17.41;65.19;100210.69;7353228;19;20021;-57
2023/08/13 06:11:36;;;;;;;0.00;0.00;;;;;;;17.41;65.21;100215.97;7349430;19;20034;-57
2023/08/13 06:14:02;;;;;;;0.10;0.10;;;;;;;17.40;65.58;100220.41;7354486;19;20034;-57
2023/08/13 06:16:28;;;;;;;0.00;0.00;;;;;;;17.40;65.29;100214.28;7353519;19;20003;-55
2023/08/13 06:18:53;;;;;;;0.10;0.10;;;;;;;17.36;65.08;100209.16;7355030;19;20030;-57
2023/08/13 06:21:19;;;;;;;0.00;0.00;;;;;;;17.35;65.56;100212.75;7352955;19;20018;-56
2023/08/13 06:23:44;;;;;;;0.10;0.10;;;;;;;17.32;65.60;100218.19;7353079;19;20023;-57
2023/08/13 06:26:10;;;;;;;0.10;0.10;;;;;;;17.29;65.38;100212.25;7355413;19;20018;-55
2023/08/13 06:28:35;;;;;;;0.00;0.00;;;;;;;17.30;65.89;100220.09;7349842;19;20010;-55
2023/08/13 06:31:01;;;;;;;0.10;0.10;;;;;;;17.31;65.94;100216.50;7355103;19;20018;-56
2023/08/13 06:33:27;;;;;;;0.00;0.00;;;;;;;17.34;65.92;100221.63;7352143;19;20493;-55
2023/08/13 06:35:52;;;;;;;0.10;0.10;;;;;;;17.35;65.73;100218.03;7355209;19;20014;-57
2023/08/13 06:38:18;;;;;;;0.08;0.08;;;;;;;17.39;65.96;100221.34;7351966;19;20014;-57
2023/08/13 06:40:44;;;;;;;0.08;0.08;;;;;;;17.44;65.75;100210.53;7354007;19;20014;-57
2023/08/13 06:43:11;;;;;;;0.00;0.00;;;;;;;17.49;65.57;100213.75;7349833;19;20025;-55
2023/08/13 06:45:36;;;;;;;0.10;0.10;;;;;;;17.53;65.67;100212.59;7348253;19;20034;-56
2023/08/13 06:48:04;;;;;;;0.03;0.03;;;;;;;17.57;65.71;100217.59;7352165;19;20507;-56
2023/08/13 06:50:30;;;;;;;0.00;0.00;;;;;;;17.62;64.92;100212.06;7344929;19;20034;-56
2023/08/13 06:52:55;;;;;;;0.10;0.10;;;;;;;17.66;65.35;100221.50;7356798;19;20386;-55
2023/08/13 06:55:21;;;;;;;0.10;0.10;;;;;;;17.70;64.67;100220.38;7359784;19;20022;-56
2023/08/13 06:57:46;;;;;;;0.00;0.00;;;;;;;17.72;65.21;100215.84;7359768;19;20792;-57
2023/08/13 07:00:13;;;;;;;0.05;0.05;;;;;;;17.75;64.64;100210.41;7358775;19;20033;-57
2023/08/13 07:02:38;;;;;;;0.00;0.00;;;;;;;17.77;64.85;100208.53;7358750;19;20007;-56
2023/08/13 07:05:05;;;;;;;0.10;0.10;;;;;;;17.83;64.81;100218.72;7357687;19;20050;-57
2023/08/13 07:07:33;;;;;;;0.07;0.07;;;;;;;17.72;64.77;100193.88;7359124;19;20006;-55
2023/08/13 07:09:59;;;;;;;0.00;0.00;;;;;;;17.86;64.34;100207.97;7357315;19;20018;-55
2023/08/13 07:12:25;;;;;;;0.00;0.00;;;;;;;17.89;64.63;100210.44;7360879;19;20045;-57
2023/08/13 07:14:50;;;;;;;0.10;0.10;;;;;;;17.89;64.08;100210.44;7351172;19;20417;-56
2023/08/13 07:17:16;;;;;;;0.00;0.00;;;;;;;17.95;64.10;100216.28;7361025;19;20011;-56
2023/08/13 07:19:41;;;;;;;0.00;0.00;;;;;;;17.97;64.56;100219.69;7356065;19;20085;-57
2023/08/13 07:22:06;;;;;;;0.10;0.10;;;;;;;17.98;64.46;100216.09;7357809;19;20093;-57
2023/08/13 07:24:32;;;;;;;0.00;0.00;;;;;;;18.01;63.92;100215.91;7358696;19;20019;-55
2023/08/13 07:26:57;;;;;;;0.00;0.00;;;;;;;18.01;64.02;100200.06;7359822;19;21130;-55
2023/08/13 07:29:23;;;;;;;0.10;0.10;;;;;;;18.01;64.12;100215.91;7356670;19;20491;-54
2023/08/13 07:31:48;;;;;;;0.10;0.10;;;;;;;18.03;63.56;100225.41;7357666;19;20019;-56
2023/08/13 07:34:14;;;;;;;0.03;0.03;;;;;;;18.00;63.71;100214.22;7355918;19;20031;-57
2023/08/13 07:36:39;;;;;;;0.08;0.08;;;;;;;18.02;63.52;100222.88;7360509;19;20017;-56
2023/08/13 07:39:05;;;;;;;0.10;0.10;;;;;;;18.04;63.51;100221.00;7358753;19;20011;-57
2023/08/13 07:41:30;;;;;;;0.05;0.05;;;;;;;18.00;63.63;100214.22;7357634;19;20010;-56
2023/08/13 07:43:56;;;;;;;0.10;0.10;;;;;;;18.05;63.15;100222.72;7357045;19;20009;-55
2023/08/13 07:46:21;;;;;;;0.00;0.00;;;;;;;18.05;63.49;100220.06;7356379;19;20034;-57
2023/08/13 07:48:47;;;;;;;0.00;0.00;;;;;;;18.00;63.06;100206.28;7359111;19;20010;-54
2023/08/13 07:51:12;;;;;;;0.00;0.00;;;;;;;18.05;62.89;100220.06;7359077;19;20003;-57
2023/08/13 07:53:38;;;;;;;0.10;0.10;;;;;;;18.09;62.98;100221.56;7357508;19;20010;-55
2023/08/13 07:56:04;;;;;;;0.10;0.10;;;;;;;18.11;62.77;100227.63;7357147;19;20078;-56
2023/08/13 07:58:29;;;;;;;0.00;0.00;;;;;;;18.12;63.20;100224.03;7351867;19;20074;-56
2023/08/13 08:00:54;;;;;;;0.10;0.10;;;;;;;18.16;62.44;100238.75;7357253;19;20083;-56
2023/08/13 08:03:20;;;;;;;0.08;0.08;;;;;;;18.16;62.15;100228.19;7356109;19;20021;-57
2023/08/13 08:05:49;;;;;;;0.00;0.00;;;;;;;18.09;62.73;100218.91;7355251;19;20033;-56
2023/08/13 08:08:17;;;;;;;0.10;0.10;;;;;;;18.17;62.25;100229.88;7351664;19;20043;-57
2023/08/13 08:10:43;;;;;;;0.08;0.08;;;;;;;18.21;62.52;100231.38;7359139;19;20022;-56
2023/08/13 08:13:08;;;;;;;0.10;0.10;;;;;;;18.23;62.39;100226.84;7354487;19;20417;-56
2023/08/13 08:15:34;;;;;;;0.00;0.00;;;;;;;18.27;61.94;100238.94;7359056;19;20006;-57
2023/08/13 08:17:59;;;;;;;0.00;0.00;;;;;;;18.29;62.19;100242.31;7353503;19;20022;-56
2023/08/13 08:20:25;;;;;;;0.00;0.00;;;;;;;18.34;62.39;100234.94;7357302;19;20674;-57
2023/08/13 08:22:51;;;;;;;0.10;0.10;;;;;;;18.39;62.45;100229.38;7354277;19;20045;-57
2023/08/13 08:25:17;;;;;;;0.00;0.00;;;;;;;18.39;61.61;100224.94;7356328;19;20015;-57
2023/08/13 08:27:42;;;;;;;0.00;0.00;;;;;;;18.54;61.95;100235.50;7357821;19;20031;-55
2023/08/13 08:30:08;;;;;;;0.00;0.00;;;;;;;18.61;61.68;100234.19;7356571;19;20035;-57
2023/08/13 08:32:35;;;;;;;0.00;0.00;;;;;;;18.68;61.98;100240.81;7353400;19;20078;-57
2023/08/13 08:35:00;;;;;;;0.10;0.10;;;;;;;18.77;61.36;100248.16;7356074;19;20042;-57
2023/08/13 08:37:26;;;;;;;0.00;0.00;;;;;;;18.85;61.51;100245.84;7357973;19;20446;-56
2023/08/13 08:39:51;;;;;;;0.00;0.00;;;;;;;18.95;61.40;100245.25;7356323;19;20022;-56
2023/08/13 08:42:18;;;;;;;0.00;0.00;;;;;;;19.03;60.77;100242.97;7357191;19;20010;-57
2023/08/13 08:44:43;;;;;;;0.05;0.05;;;;;;;19.04;60.10;100240.22;7353697;19;20010;-56
2023/08/13 08:47:09;;;;;;;0.00;0.00;;;;;;;19.18;60.14;100255.22;7357159;19;20436;-57
2023/08/13 08:49:35;;;;;;;0.03;0.03;;;;;;;19.23;59.30;100234.56;7356066;19;20007;-57
2023/08/13 08:52:02;;;;;;;0.10;0.10;;;;;;;19.27;59.33;100238.72;7350912;19;20013;-57
2023/08/13 08:54:27;;;;;;;0.00;0.00;;;;;;;19.30;59.11;100235.84;7343664;19;20019;-56
2023/08/13 08:56:53;;;;;;;0.00;0.00;;;;;;;19.32;59.42;100244.56;7356538;19;20006;-57
2023/08/13 08:59:19;;;;;;;0.10;0.10;;;;;;;19.37;59.45;100237.16;7350219;19;20017;-56
2023/08/13 09:01:45;;;;;;;0.10;0.10;;;;;;;19.36;59.55;100230.19;7357814;19;20011;-56
2023/08/13 09:04:10;;;;;;;0.10;0.10;;;;;;;19.50;59.28;100236.34;7350840;19;20388;-55
2023/08/13 09:07:11;;;;;;;0.10;0.10;;;;;;;19.72;60.39;100239.28;7357459;19;20333;-57
2023/08/13 09:09:37;;;;;;;0.10;0.10;;;;;;;19.79;59.77;100237.03;7249250;19;2004196;-55
2023/08/13 09:12:03;;;;;;;0.00;0.00;;;;;;;19.89;59.20;100223.06;7341989;19;20023;-56
2023/08/13 09:14:29;;;;;;;0.10;0.10;;;;;;;20.14;58.13;100222.19;7351836;19;20014;-56
2023/08/13 09:16:56;;;;;;;0.03;0.03;;;;;;;20.26;57.77;100204.56;7355927;19;20021;-56
2023/08/13 09:19:24;;;;;;;0.08;0.08;;;;;;;20.52;57.59;100231.06;7352957;19;20018;-57
2023/08/13 09:21:50;;;;;;;0.10;0.10;;;;;;;20.73;56.58;100230.41;7355780;19;20026;-57
2023/08/13 09:24:16;;;;;;;0.10;0.10;;;;;;;20.87;56.20;100226.72;7353480;19;20625;-56
2023/08/13 09:26:42;;;;;;;0.00;0.00;;;;;;;21.02;55.96;100232.72;7355292;19;20010;-57
2023/08/13 09:29:08;;;;;;;0.00;0.00;;;;;;;21.15;56.00;100240.63;7352879;19;20873;-57
2023/08/13 09:31:34;;;;;;;0.05;0.05;;;;;;;21.23;54.69;100239.06;7354235;19;20482;-58
2023/08/13 09:34:00;;;;;;;0.10;0.10;;;;;;;21.24;54.51;100235.47;7352837;19;20105;-55
2023/08/13 09:36:27;;;;;;;0.03;0.03;;;;;;;21.35;53.78;100232.06;7357743;19;20081;-55
2023/08/13 09:38:53;;;;;;;0.00;0.00;;;;;;;21.35;53.95;100216.13;7355525;19;20015;-56
2023/08/13 09:41:20;;;;;;;0.10;0.10;;;;;;;21.46;53.71;100221.47;7352748;19;20014;-55
2023/08/13 09:43:49;;;;;;;0.10;0.10;;;;;;;21.69;54.24;100245.44;7356847;19;20399;-57
2023/08/13 09:46:21;;;;;;;0.10;0.10;;;;;;;21.91;54.08;100234.84;7353638;19;20879;-56
2023/08/13 09:48:49;;;;;;;0.10;0.10;;;;;;;22.01;52.42;100233.19;7355044;19;20018;-57
2023/08/13 09:51:17;;;;;;;0.08;0.08;;;;;;;22.19;53.53;100238.03;7351700;19;20014;-57
2023/08/13 09:53:51;;;;;;;0.00;0.00;;;;;;;22.43;52.93;100225.47;7354480;19;20942;-56
2023/08/13 09:56:19;;;;;;;0.10;0.10;;;;;;;22.68;52.17;100223.50;7352053;19;20801;-57
2023/08/13 09:58:45;;;;;;;0.00;0.00;;;;;;;22.89;51.53;100232.44;7351159;19;20932;-57
2023/08/13 10:01:11;;;;;;;0.00;0.00;;;;;;;23.17;50.99;100228.34;7356406;19;20078;-57
2023/08/13 10:03:38;;;;;;;0.10;0.10;;;;;;;23.48;50.97;100226.63;7355523;19;20022;-55
2023/08/13 10:06:04;;;;;;;0.10;0.10;;;;;;;23.73;50.44;100219.25;7352174;19;20013;-57
2023/08/13 10:08:29;;;;;;;0.10;0.10;;;;;;;23.98;49.59;100216.19;7349451;19;20105;-57
2023/08/13 10:10:55;;;;;;;0.10;0.10;;;;;;;24.29;49.34;100229.50;7344972;19;20010;-57
2023/08/13 10:13:21;;;;;;;0.00;0.00;;;;;;;24.49;47.03;100220.63;7354843;19;20761;-56
2023/08/13 10:15:47;;;;;;;0.10;0.10;;;;;;;24.65;46.40;100219.25;7352623;19;20368;-58
2023/08/13 10:18:15;;;;;;;0.08;0.08;;;;;;;24.83;47.77;100233.63;7350202;19;20900;-57
2023/08/13 10:20:45;;;;;;;0.08;0.08;;;;;;;24.98;47.77;100220.72;7356117;19;20028;-57
2023/08/13 10:23:11;;;;;;;0.10;0.10;;;;;;;25.10;46.79;100225.81;7342694;19;20025;-57
2023/08/13 10:25:38;;;;;;;0.00;0.00;;;;;;;25.36;47.23;100222.59;7350247;19;20062;-55
2023/08/13 10:28:27;;;;;;;0.00;0.00;;;;;;;25.63;48.75;100212.00;7352978;19;20495;-57
2023/08/13 10:31:23;;;;;;;0.00;0.00;;;;;;;25.96;47.91;100230.41;7354020;19;20010;-57
2023/08/13 10:34:06;;;;;;;0.00;0.00;;;;;;;26.13;46.79;100222.44;7253214;19;2004568;-56
2023/08/13 10:36:52;;;;;;;0.00;0.00;;;;;;;26.21;46.87;100221.72;7347464;19;20021;-57
2023/08/13 10:39:37;;;;;;;0.10;0.10;;;;;;;26.24;47.16;100232.13;7346918;19;20014;-57
2023/08/13 10:42:04;;;;;;;0.03;0.03;;;;;;;26.14;43.79;100232.16;7353750;19;20119;-56
2023/08/13 10:44:40;;;;;;;0.00;0.00;;;;;;;26.12;44.58;100228.78;7353703;19;20837;-57
2023/08/13 10:47:05;;;;;;;0.00;0.00;;;;;;;25.90;42.75;100239.00;7355725;19;20573;-55
2023/08/13 10:49:31;;;;;;;0.10;0.10;;;;;;;25.60;44.05;100228.34;7352871;19;20031;-57
2023/08/13 10:52:01;;;;;;;0.10;0.10;;;;;;;25.53;44.62;100232.56;7353557;19;20023;-56
2023/08/13 10:54:27;;;;;;;0.10;0.10;;;;;;;25.36;43.71;100217.25;7352330;19;20018;-57
2023/08/13 10:56:59;;;;;;;0.00;0.00;;;;;;;25.47;45.28;100234.97;7354055;19;20048;-57
2023/08/13 10:59:51;;;;;;;0.13;0.13;;;;;;;25.49;46.10;100235.66;7344582;19;20099;-57
2023/08/13 11:02:19;;;;;;;0.10;0.10;;;;;;;25.41;44.22;100233.69;7244554;19;2004539;-56
2023/08/13 11:04:46;;;;;;;0.10;0.10;;;;;;;25.33;44.22;100234.41;7344247;19;20142;-56
2023/08/13 11:07:14;;;;;;;0.00;0.00;;;;;;;25.32;44.60;100245.25;7349769;19;20021;-56
2023/08/13 11:09:42;;;;;;;0.00;0.00;;;;;;;25.28;44.78;100247.34;7351747;19;20552;-55
2023/08/13 11:12:09;;;;;;;0.10;0.10;;;;;;;25.26;43.48;100248.47;7350184;19;20021;-56
2023/08/13 11:14:36;;;;;;;0.05;0.05;;;;;;;25.16;42.62;100253.81;7349281;19;20006;-56
2023/08/13 11:17:02;;;;;;;0.00;0.00;;;;;;;25.02;43.56;100257.69;7349945;19;20097;-57
2023/08/13 11:19:28;;;;;;;0.10;0.10;;;;;;;24.89;43.98;100258.94;7328856;19;20081;-57
2023/08/13 11:21:56;;;;;;;0.10;0.10;;;;;;;24.83;44.66;100249.63;7349660;19;20892;-55